Time;durP1;ratioP1;P1;durP2;ratioP2;P2;SDS_P1;SDS_P2;PMS_P1;PMS_P2;Temp;Humidity;BMP_temperature;BMP_pressure;BME280_temperature;BME280_humidity;BME280_pressure;Samples;Min_cycle;Max_cycle;Signal;HPM_P1;HPM_P2
2023/05/02 00:01:26;;;;;;;0.90;0.90;;;;;;;13.32;64.79;102159.63;5068333;28;20037;-80
2023/05/02 00:03:53;;;;;;;0.57;0.57;;;;;;;13.32;64.81;102165.88;5071451;28;20033;-80
2023/05/02 00:06:19;;;;;;;0.40;0.40;;;;;;;13.32;65.12;102157.88;5058039;28;20036;-79
2023/05/02 00:08:45;;;;;;;0.10;0.10;;;;;;;13.34;65.06;102157.84;5065486;28;20398;-79
2023/05/02 00:11:11;;;;;;;0.13;0.13;;;;;;;13.35;65.06;102159.63;5072426;28;20037;-80
2023/05/02 00:13:37;;;;;;;0.43;0.32;;;;;;;13.35;64.83;102159.63;5068111;28;20021;-81
2023/05/02 00:16:04;;;;;;;0.10;0.10;;;;;;;13.35;65.35;102152.50;5072444;28;20553;-81
2023/05/02 00:18:30;;;;;;;0.17;0.17;;;;;;;13.34;65.49;102163.19;5073873;28;20504;-81
2023/05/02 00:20:56;;;;;;;4.30;2.83;;;;;;;13.37;64.83;102168.44;5071407;28;20025;-80
2023/05/02 00:23:22;;;;;;;1.23;1.23;;;;;;;13.37;65.06;102171.13;5066535;28;20406;-81
2023/05/02 00:25:49;;;;;;;1.95;1.85;;;;;;;13.43;64.90;102164.00;5067863;28;20397;-81
2023/05/02 00:28:15;;;;;;;0.00;0.00;;;;;;;13.46;65.12;102168.41;5070598;28;20039;-80
2023/05/02 00:30:44;;;;;;;0.20;0.20;;;;;;;13.51;65.06;102171.91;5072872;28;20028;-79
2023/05/02 00:33:12;;;;;;;0.30;0.30;;;;;;;13.52;64.79;102176.31;5073187;28;20021;-81
2023/05/02 00:35:38;;;;;;;0.40;0.40;;;;;;;13.54;64.92;102171.84;5068038;28;20020;-80
2023/05/02 00:38:04;;;;;;;0.10;0.10;;;;;;;13.59;64.95;102175.38;5066882;28;20029;-79
2023/05/02 00:40:31;;;;;;;0.20;0.20;;;;;;;13.53;65.35;102169.22;5072991;28;20035;-80
2023/05/02 00:42:57;;;;;;;0.80;0.80;;;;;;;13.54;65.20;102165.66;5069346;28;20020;-80
2023/05/02 00:45:23;;;;;;;0.10;0.10;;;;;;;13.57;64.89;102166.50;5067682;28;20120;-81
2023/05/02 00:47:49;;;;;;;0.10;0.10;;;;;;;13.63;64.65;102167.31;5073593;28;20032;-81
2023/05/02 00:50:16;;;;;;;0.63;0.40;;;;;;;13.68;64.58;102178.81;5069857;28;20025;-80
2023/05/02 00:52:43;;;;;;;0.10;0.10;;;;;;;13.68;64.77;102166.38;5082757;28;20064;-83
2023/05/02 00:55:09;;;;;;;0.10;0.10;;;;;;;13.71;64.67;102181.44;5065610;28;20085;-83
2023/05/02 00:57:35;;;;;;;0.10;0.10;;;;;;;13.61;64.95;102185.09;5072314;28;20058;-80
2023/05/02 01:00:03;;;;;;;0.10;0.10;;;;;;;13.60;64.94;102178.91;5081277;28;20047;-79
2023/05/02 01:05:16;;;;;;;0.10;0.10;;;;;;;13.63;65.20;102184.19;5098395;27;1430939;-83
2023/05/02 01:13:22;;;;;;;0.10;0.10;;;;;;;13.66;64.95;102194.81;5084877;27;20949;-80
2023/05/02 01:15:50;;;;;;;0.32;0.32;;;;;;;13.57;65.05;102193.13;5093910;28;20043;-80
2023/05/02 01:18:21;;;;;;;0.10;0.10;;;;;;;13.55;65.29;102202.03;5078474;28;20014;-80
2023/05/02 01:20:52;;;;;;;0.10;0.10;;;;;;;13.54;64.97;102198.47;5083669;28;20040;-83
2023/05/02 01:23:46;;;;;;;0.10;0.10;;;;;;;13.57;65.09;102209.09;5087166;28;20037;-82
2023/05/02 01:28:59;;;;;;;0.25;0.25;;;;;;;13.59;65.01;102207.31;5075454;28;20401;-83
2023/05/02 01:31:30;;;;;;;0.38;0.38;;;;;;;13.57;64.62;102210.88;5080908;28;20035;-83
2023/05/02 01:33:57;;;;;;;0.10;0.10;;;;;;;13.58;64.83;102210.88;5080529;28;20402;-82
2023/05/02 01:36:27;;;;;;;1.45;1.25;;;;;;;13.53;65.05;102209.16;5056466;28;20028;-83
2023/05/02 01:38:54;;;;;;;0.00;0.00;;;;;;;13.62;64.71;102210.84;5056282;28;20025;-82
2023/05/02 01:41:23;;;;;;;0.10;0.10;;;;;;;13.58;64.61;102221.53;5068120;28;20025;-82
2023/05/02 01:43:50;;;;;;;0.10;0.10;;;;;;;13.60;64.45;102221.50;5061667;28;20037;-84
2023/05/02 01:46:19;;;;;;;0.10;0.10;;;;;;;13.57;64.75;102216.19;5053826;28;20028;-83
2023/05/02 01:48:48;;;;;;;0.10;0.10;;;;;;;13.58;64.23;102220.63;5068204;28;20119;-83
2023/05/02 01:51:16;;;;;;;0.10;0.10;;;;;;;13.57;64.19;102230.41;5069469;28;20036;-84
2023/05/02 01:53:47;;;;;;;0.10;0.10;;;;;;;13.56;64.06;102230.44;5053122;28;20025;-82
2023/05/02 01:56:16;;;;;;;0.15;0.15;;;;;;;13.57;64.04;102241.06;5070611;28;20039;-82
2023/05/02 01:58:44;;;;;;;0.10;0.10;;;;;;;13.56;63.96;102241.97;5056429;28;20047;-82
2023/05/02 02:01:12;;;;;;;0.10;0.10;;;;;;;13.57;64.24;102246.41;5057928;28;20025;-82
2023/05/02 02:03:38;;;;;;;0.10;0.10;;;;;;;13.55;64.07;102250.84;5066122;28;20033;-83
2023/05/02 02:06:05;;;;;;;0.10;0.10;;;;;;;13.53;63.62;102260.66;5062165;28;20048;-82
2023/05/02 02:08:31;;;;;;;0.10;0.10;;;;;;;13.50;63.45;102260.66;5060864;28;20421;-82
2023/05/02 02:11:07;;;;;;;0.30;0.30;;;;;;;13.46;63.54;102266.91;5076170;28;20032;-81
2023/05/02 02:13:38;;;;;;;0.00;0.00;;;;;;;13.48;63.42;102266.91;5056743;28;20036;-82
2023/05/02 02:16:07;;;;;;;0.10;0.10;;;;;;;13.42;63.36;102270.47;5065713;28;20048;-84
2023/05/02 02:18:37;;;;;;;0.10;0.10;;;;;;;13.43;63.34;102274.91;5061335;28;20031;-83
2023/05/02 02:21:08;;;;;;;0.10;0.10;;;;;;;13.42;62.78;102282.03;5072124;28;20028;-82
2023/05/02 02:23:38;;;;;;;1.25;0.95;;;;;;;13.37;62.91;102277.59;5062449;28;20032;-82
2023/05/02 02:26:05;;;;;;;0.20;0.20;;;;;;;13.33;62.92;102283.84;5064931;28;20089;-82
2023/05/02 02:28:32;;;;;;;0.08;0.08;;;;;;;13.36;62.48;102283.84;5060698;28;20126;-81
2023/05/02 02:30:59;;;;;;;0.40;0.40;;;;;;;13.32;62.87;102276.75;5071273;28;20029;-83
2023/05/02 02:33:29;;;;;;;0.10;0.10;;;;;;;13.30;62.09;102287.44;5072914;28;20024;-80
2023/05/02 02:36:18;;;;;;;0.10;0.10;;;;;;;13.26;62.24;102294.56;5067146;28;20040;-81
2023/05/02 02:38:53;;;;;;;0.10;0.10;;;;;;;13.24;62.02;102288.34;5059133;28;20119;-80
2023/05/02 02:41:26;;;;;;;0.10;0.10;;;;;;;13.20;61.69;102302.59;5056780;28;20025;-81
2023/05/02 02:44:08;;;;;;;0.43;0.43;;;;;;;13.21;61.33;102295.50;5049952;28;20039;-81
2023/05/02 02:49:48;;;;;;;0.10;0.10;;;;;;;13.06;61.07;102307.09;5115139;27;20411;-81
2023/05/02 02:55:37;;;;;;;0.10;0.10;;;;;;;12.98;60.41;102303.63;5075111;27;20422;-79
2023/05/02 03:00:55;;;;;;;0.10;0.10;;;;;;;12.91;61.36;102314.31;5085384;27;20415;-81
2023/05/02 03:03:27;;;;;;;0.10;0.10;;;;;;;12.91;60.86;102303.69;5088171;28;20028;-80
2023/05/02 03:05:55;;;;;;;0.10;0.10;;;;;;;12.89;60.63;102309.91;5081173;28;20066;-82
2023/05/02 03:08:22;;;;;;;0.28;0.28;;;;;;;12.90;60.52;102311.69;5081029;28;20033;-82
2023/05/02 03:10:48;;;;;;;0.10;0.10;;;;;;;12.92;60.51;102316.09;5078862;28;20116;-80
2023/05/02 03:13:14;;;;;;;0.10;0.10;;;;;;;12.94;60.72;102319.59;5058088;28;20029;-80
2023/05/02 03:18:18;;;;;;;0.10;0.10;;;;;;;13.01;60.74;102330.22;5095220;28;20430;-79
2023/05/02 03:20:45;;;;;;;0.10;0.10;;;;;;;13.01;60.81;102335.53;5074570;28;20025;-80
2023/05/02 03:23:11;;;;;;;0.10;0.10;;;;;;;13.00;60.13;102331.13;5071437;28;20029;-81
2023/05/02 03:25:37;;;;;;;0.57;0.57;;;;;;;13.01;60.11;102340.84;5063750;28;20032;-82
2023/05/02 03:28:04;;;;;;;0.35;0.35;;;;;;;13.01;60.27;102340.84;5071072;28;20367;-82
2023/05/02 03:30:30;;;;;;;0.10;0.10;;;;;;;13.01;60.62;102340.84;5069379;28;20044;-80
2023/05/02 03:32:56;;;;;;;0.10;0.10;;;;;;;13.01;60.00;102351.50;5084483;28;20016;-79
2023/05/02 03:35:22;;;;;;;0.10;0.10;;;;;;;12.94;60.41;102348.88;5069687;28;20040;-80
2023/05/02 03:37:48;;;;;;;0.10;0.10;;;;;;;13.01;60.13;102351.50;5076536;28;20020;-82
2023/05/02 03:40:14;;;;;;;0.10;0.10;;;;;;;13.02;59.91;102355.94;5066378;28;20060;-80
2023/05/02 03:42:41;;;;;;;0.10;0.10;;;;;;;13.01;60.38;102355.06;5063359;28;20059;-80
2023/05/02 03:45:09;;;;;;;0.10;0.10;;;;;;;12.99;60.37;102358.63;5060093;28;20041;-79
2023/05/02 03:47:35;;;;;;;0.10;0.10;;;;;;;12.96;60.25;102359.53;5078138;28;20020;-80
2023/05/02 03:50:02;;;;;;;0.10;0.10;;;;;;;12.92;60.20;102377.28;5057492;28;20021;-80
2023/05/02 03:52:28;;;;;;;0.10;0.10;;;;;;;12.92;59.84;102374.63;5071545;28;20112;-82
2023/05/02 03:54:54;;;;;;;0.28;0.28;;;;;;;12.91;59.64;102375.50;5061718;28;20050;-81
2023/05/02 03:57:20;;;;;;;0.10;0.10;;;;;;;12.92;60.03;102368.41;5062171;28;20147;-81
2023/05/02 03:59:47;;;;;;;0.10;0.10;;;;;;;12.89;60.03;102374.63;5067948;28;20086;-82
2023/05/02 04:02:13;;;;;;;0.10;0.10;;;;;;;12.88;59.57;102388.81;5072933;28;20028;-81
2023/05/02 04:04:39;;;;;;;0.20;0.20;;;;;;;12.85;59.37;102383.50;5059340;28;20555;-82
2023/05/02 04:07:06;;;;;;;0.10;0.10;;;;;;;12.83;59.71;102395.94;5069742;28;20017;-82
2023/05/02 04:09:33;;;;;;;0.10;0.10;;;;;;;12.80;59.56;102393.28;5067276;28;20536;-80
2023/05/02 04:12:00;;;;;;;0.10;0.10;;;;;;;12.78;58.94;102403.94;5068612;28;20028;-82
2023/05/02 04:14:26;;;;;;;0.10;0.10;;;;;;;12.80;59.31;102395.94;5053334;28;20028;-82
2023/05/02 04:16:52;;;;;;;0.10;0.10;;;;;;;12.82;59.05;102399.47;5071051;28;20555;-82
2023/05/02 04:19:19;;;;;;;0.10;0.10;;;;;;;12.83;59.38;102397.72;5067538;28;20029;-82
2023/05/02 04:21:45;;;;;;;0.10;0.10;;;;;;;12.82;59.42;102410.09;5077259;28;20278;-81
2023/05/02 04:24:12;;;;;;;0.10;0.10;;;;;;;12.83;59.41;102409.22;5059662;28;20468;-80
2023/05/02 04:26:38;;;;;;;0.10;0.10;;;;;;;12.83;59.35;102397.72;5066413;28;20024;-81
2023/05/02 04:29:04;;;;;;;0.10;0.10;;;;;;;12.85;59.15;102407.44;5054148;28;20100;-82
2023/05/02 04:31:31;;;;;;;0.10;0.10;;;;;;;12.83;58.77;102413.69;5050173;28;20041;-82
2023/05/02 04:33:57;;;;;;;0.10;0.10;;;;;;;12.77;58.38;102411.91;5047491;28;20398;-83
2023/05/02 04:36:25;;;;;;;0.63;0.63;;;;;;;12.76;58.89;102420.78;5068957;28;20066;-82
2023/05/02 04:38:51;;;;;;;0.10;0.10;;;;;;;12.73;58.97;102426.13;5054907;28;20482;-83
2023/05/02 04:41:17;;;;;;;0.10;0.10;;;;;;;12.75;58.66;102435.00;5062783;28;20051;-81
2023/05/02 04:43:44;;;;;;;0.10;0.10;;;;;;;12.75;58.67;102435.00;5055180;28;20025;-83
2023/05/02 04:46:10;;;;;;;0.10;0.10;;;;;;;12.75;58.67;102437.66;5066743;28;20058;-82
2023/05/02 04:48:40;;;;;;;0.05;0.05;;;;;;;12.77;58.63;102438.50;5053259;28;20034;-82
2023/05/02 04:51:08;;;;;;;0.15;0.15;;;;;;;12.76;58.13;102448.28;5045317;28;20039;-82
2023/05/02 04:53:34;;;;;;;0.30;0.30;;;;;;;12.76;58.20;102452.69;5054215;28;20033;-82
2023/05/02 04:56:01;;;;;;;0.10;0.10;;;;;;;12.79;58.35;102460.69;5041354;28;20043;-83
2023/05/02 04:58:27;;;;;;;0.10;0.10;;;;;;;12.79;57.95;102461.53;5048603;28;20030;-83
2023/05/02 05:00:53;;;;;;;0.52;0.52;;;;;;;12.81;58.11;102471.31;5049950;28;20029;-84
2023/05/02 05:03:20;;;;;;;0.10;0.10;;;;;;;12.82;58.25;102463.31;5049437;28;20083;-82
2023/05/02 05:05:46;;;;;;;0.10;0.10;;;;;;;12.83;57.99;102470.41;5064518;28;20165;-81
2023/05/02 05:08:12;;;;;;;0.08;0.08;;;;;;;12.86;58.13;102472.16;5064270;28;20025;-83
2023/05/02 05:10:39;;;;;;;0.10;0.10;;;;;;;12.85;57.86;102473.94;5051463;28;20031;-82
2023/05/02 05:13:05;;;;;;;0.10;0.10;;;;;;;12.82;57.99;102479.25;5050150;28;20036;-83
2023/05/02 05:15:31;;;;;;;0.10;0.10;;;;;;;12.82;58.03;102479.25;5058995;28;20436;-82
2023/05/02 05:17:57;;;;;;;0.10;0.10;;;;;;;12.83;58.02;102469.53;5049878;28;20040;-83
2023/05/02 05:20:23;;;;;;;0.10;0.10;;;;;;;12.83;58.31;102480.16;5053762;28;20036;-82
2023/05/02 05:22:50;;;;;;;0.25;0.25;;;;;;;12.84;57.54;102477.50;5048141;28;20108;-84
2023/05/02 05:25:16;;;;;;;0.10;0.10;;;;;;;12.92;57.67;102473.06;5045052;28;20095;-84
2023/05/02 05:27:42;;;;;;;0.10;0.10;;;;;;;12.99;57.55;102487.19;5054637;28;20017;-82
2023/05/02 05:30:09;;;;;;;0.10;0.10;;;;;;;12.92;57.59;102485.44;5049272;28;20104;-83
2023/05/02 05:32:35;;;;;;;0.10;0.10;;;;;;;12.90;57.32;102496.09;5052417;28;20028;-84
2023/05/02 05:35:02;;;;;;;0.20;0.20;;;;;;;12.93;57.22;102498.78;5052636;28;20052;-82
2023/05/02 05:37:28;;;;;;;0.10;0.10;;;;;;;12.94;57.45;102500.50;5050615;28;20029;-81
2023/05/02 05:39:54;;;;;;;0.10;0.10;;;;;;;12.93;57.19;102505.84;5054056;28;20033;-82
2023/05/02 05:42:20;;;;;;;0.10;0.10;;;;;;;12.95;57.31;102510.28;5053731;28;20033;-83
2023/05/02 05:44:46;;;;;;;0.10;0.10;;;;;;;12.95;57.00;102518.25;5052604;28;20029;-82
2023/05/02 05:47:17;;;;;;;0.10;0.10;;;;;;;12.97;57.36;102522.69;5058951;28;20082;-80
2023/05/02 05:49:43;;;;;;;0.10;0.10;;;;;;;13.03;57.10;102518.22;5067675;28;20018;-82
2023/05/02 05:52:09;;;;;;;0.10;0.10;;;;;;;13.08;57.40;102529.75;5056333;28;20044;-82
2023/05/02 05:54:35;;;;;;;0.10;0.10;;;;;;;13.13;56.95;102532.38;5048886;28;20371;-84
2023/05/02 05:57:03;;;;;;;0.10;0.10;;;;;;;13.17;57.23;102533.25;5049276;28;20799;-82
2023/05/02 05:59:29;;;;;;;5.60;0.63;;;;;;;13.18;56.54;102538.56;5046587;28;20045;-80
2023/05/02 06:01:56;;;;;;;0.10;0.10;;;;;;;13.23;57.08;102536.81;5053908;28;20045;-80
2023/05/02 06:04:22;;;;;;;0.10;0.10;;;;;;;13.30;56.71;102550.97;5033560;28;20033;-82
2023/05/02 06:06:53;;;;;;;0.10;0.10;;;;;;;13.40;56.66;102551.84;5044700;28;20112;-82
2023/05/02 06:09:19;;;;;;;0.10;0.10;;;;;;;13.43;56.71;102555.38;5045453;28;20022;-81
2023/05/02 06:11:45;;;;;;;0.10;0.10;;;;;;;13.44;56.14;102553.59;5049876;28;21302;-82
2023/05/02 06:14:11;;;;;;;0.10;0.10;;;;;;;13.44;56.00;102558.91;5051330;28;20041;-81
2023/05/02 06:16:37;;;;;;;0.10;0.10;;;;;;;13.44;56.17;102558.91;5049360;28;20068;-81
2023/05/02 06:19:03;;;;;;;0.10;0.10;;;;;;;13.45;55.67;102566.00;5035614;28;20022;-81
2023/05/02 06:21:30;;;;;;;0.10;0.10;;;;;;;13.46;55.62;102565.13;5044460;28;20037;-82
2023/05/02 06:23:56;;;;;;;0.95;0.65;;;;;;;13.49;55.49;102573.09;5037043;28;20051;-81
2023/05/02 06:26:22;;;;;;;0.10;0.10;;;;;;;13.50;55.61;102572.19;5049035;28;20078;-82
2023/05/02 06:28:48;;;;;;;0.10;0.10;;;;;;;13.53;55.57;102580.19;5049090;28;20017;-82
2023/05/02 06:31:15;;;;;;;0.10;0.10;;;;;;;13.53;54.63;102576.63;5039820;28;20029;-80
2023/05/02 06:34:12;;;;;;;0.10;0.10;;;;;;;13.59;55.05;102585.50;5043423;28;20091;-82
2023/05/02 06:36:44;;;;;;;0.10;0.10;;;;;;;13.53;54.72;102590.84;5046823;28;20033;-83
2023/05/02 06:39:19;;;;;;;0.10;0.10;;;;;;;13.51;55.26;102592.63;5040076;28;20044;-82
2023/05/02 06:42:17;;;;;;;0.17;0.17;;;;;;;13.50;55.48;102601.50;5048752;28;20107;-82
2023/05/02 06:45:13;;;;;;;0.10;0.10;;;;;;;13.55;54.46;102609.47;5033388;28;20142;-82
2023/05/02 06:47:45;;;;;;;0.20;0.20;;;;;;;13.52;55.18;102610.38;5044837;28;20092;-82
2023/05/02 06:50:53;;;;;;;0.17;0.17;;;;;;;13.56;54.73;102616.56;5055452;28;20037;-82
2023/05/02 06:53:24;;;;;;;0.13;0.13;;;;;;;13.49;55.14;102623.69;5056205;28;20064;-81
2023/05/02 06:55:52;;;;;;;0.20;0.20;;;;;;;13.52;55.06;102625.44;5049906;28;20037;-83
2023/05/02 06:58:18;;;;;;;0.10;0.10;;;;;;;13.50;54.30;102622.81;5048376;28;20041;-83
2023/05/02 07:00:53;;;;;;;0.10;0.10;;;;;;;13.52;53.75;102626.34;5061668;28;20053;-82
2023/05/02 07:03:39;;;;;;;0.55;0.55;;;;;;;13.55;53.91;102631.66;5050524;28;20052;-83
2023/05/02 07:06:08;;;;;;;0.10;0.10;;;;;;;13.62;54.69;102637.88;5054169;28;20028;-82
2023/05/02 07:09:11;;;;;;;0.13;0.13;;;;;;;13.66;53.95;102631.63;5048147;28;20145;-83
2023/05/02 07:12:01;;;;;;;0.10;0.10;;;;;;;13.78;53.98;102637.78;5053953;28;20036;-82
2023/05/02 07:14:30;;;;;;;0.15;0.15;;;;;;;13.83;54.32;102642.22;5039478;28;20395;-82
2023/05/02 07:16:59;;;;;;;0.28;0.28;;;;;;;13.86;53.43;102647.50;5047510;28;20036;-82
2023/05/02 07:19:37;;;;;;;0.47;0.47;;;;;;;13.93;53.57;102650.13;5042683;28;20033;-84
2023/05/02 07:22:06;;;;;;;1.30;1.20;;;;;;;13.89;52.93;102660.84;5051061;28;20029;-83
2023/05/02 07:25:03;;;;;;;0.10;0.10;;;;;;;13.89;53.52;102658.16;5048450;28;20068;-84
2023/05/02 07:27:48;;;;;;;0.10;0.10;;;;;;;13.88;53.38;102656.38;5045416;28;20096;-83
2023/05/02 07:30:24;;;;;;;0.10;0.10;;;;;;;13.86;53.23;102657.28;5056410;28;20260;-83
2023/05/02 07:33:10;;;;;;;0.10;0.10;;;;;;;13.96;53.02;102659.00;5046483;28;20025;-84
2023/05/02 07:35:56;;;;;;;1.90;1.65;;;;;;;13.89;52.48;102662.59;5049837;28;20031;-84
2023/05/02 07:38:52;;;;;;;0.10;0.10;;;;;;;14.01;52.78;102667.00;5008117;28;20050;-83
2023/05/02 07:41:47;;;;;;;0.10;0.10;;;;;;;14.12;52.83;102670.47;5046804;28;20045;-83
2023/05/02 07:44:15;;;;;;;0.75;0.75;;;;;;;14.11;52.75;102671.38;5040646;28;20115;-83
2023/05/02 07:46:59;;;;;;;0.10;0.10;;;;;;;14.15;52.32;102665.13;5039038;28;20060;-83
2023/05/02 07:49:35;;;;;;;0.08;0.08;;;;;;;14.10;51.64;102674.91;5047457;28;20040;-83
2023/05/02 07:52:16;;;;;;;0.10;0.10;;;;;;;14.10;52.08;102682.03;5047162;28;20124;-84
2023/05/02 07:54:42;;;;;;;0.10;0.10;;;;;;;14.03;52.24;102679.41;5040062;28;20029;-81
2023/05/02 07:57:19;;;;;;;0.10;0.10;;;;;;;14.13;52.05;102688.25;5048577;28;20128;-83
2023/05/02 07:59:46;;;;;;;0.10;0.10;;;;;;;14.12;51.60;102682.91;5052872;28;20036;-82
2023/05/02 08:02:39;;;;;;;0.10;0.10;;;;;;;14.19;50.72;102679.31;5065252;28;20021;-83
2023/05/02 08:05:16;;;;;;;0.10;0.10;;;;;;;14.16;50.77;102684.69;5063607;28;20037;-82
2023/05/02 08:07:47;;;;;;;0.10;0.10;;;;;;;14.12;50.57;102691.81;5067190;28;20037;-83
2023/05/02 08:10:56;;;;;;;0.10;0.10;;;;;;;14.26;50.75;102697.06;5053632;28;20512;-82
2023/05/02 08:13:51;;;;;;;0.10;0.10;;;;;;;14.49;50.14;102693.34;5048753;28;20055;-83
2023/05/02 08:16:18;;;;;;;0.20;0.20;;;;;;;14.51;49.84;102694.25;5052803;28;20029;-83
2023/05/02 08:18:45;;;;;;;0.30;0.30;;;;;;;14.55;49.08;102691.53;5050995;28;20047;-83
2023/05/02 08:21:18;;;;;;;0.43;0.43;;;;;;;14.65;48.51;102699.50;5057523;28;20085;-83
2023/05/02 08:23:47;;;;;;;0.10;0.10;;;;;;;14.69;48.64;102698.56;5057759;28;20054;-83
2023/05/02 08:26:14;;;;;;;0.10;0.10;;;;;;;14.68;47.25;102691.50;5054761;28;20029;-83
2023/05/02 08:28:40;;;;;;;0.10;0.10;;;;;;;14.74;47.75;102704.75;5043490;28;20063;-81
2023/05/02 08:31:11;;;;;;;0.30;0.22;;;;;;;14.73;47.90;102711.00;5051560;28;20552;-83
2023/05/02 08:33:37;;;;;;;0.10;0.10;;;;;;;14.62;47.21;102708.38;5052920;28;20082;-83
2023/05/02 08:36:11;;;;;;;0.10;0.10;;;;;;;14.59;47.47;102718.19;5052200;28;20100;-80
2023/05/02 08:38:46;;;;;;;0.10;0.10;;;;;;;14.53;47.46;102720.00;5050904;28;20548;-84
2023/05/02 08:41:15;;;;;;;0.00;0.00;;;;;;;14.42;47.11;102728.94;5066644;28;20028;-82
2023/05/02 08:43:45;;;;;;;0.40;0.40;;;;;;;14.37;46.80;102731.66;5056214;28;20033;-81
2023/05/02 08:46:13;;;;;;;0.20;0.20;;;;;;;14.25;46.63;102737.94;5053395;28;20214;-82
2023/05/02 08:48:50;;;;;;;0.10;0.10;;;;;;;14.16;46.89;102736.19;5046645;28;20082;-82
2023/05/02 08:51:17;;;;;;;0.22;0.22;;;;;;;14.10;47.01;102736.22;5047669;28;20136;-82
2023/05/02 08:53:44;;;;;;;0.10;0.10;;;;;;;14.11;45.84;102738.00;5055155;28;20043;-81
2023/05/02 08:56:11;;;;;;;0.10;0.10;;;;;;;14.17;46.17;102739.78;5044650;28;20034;-83
2023/05/02 08:58:51;;;;;;;0.10;0.10;;;;;;;14.24;46.24;102729.06;5059780;28;20033;-83
2023/05/02 09:01:46;;;;;;;;;;;;;;;;;;;;;
2023/05/02 09:04:38;;;;;;;0.10;0.10;;;;;;;14.41;45.48;102725.41;5059002;28;20071;-83
2023/05/02 09:07:07;;;;;;;0.13;0.13;;;;;;;14.44;45.60;102738.72;5056129;28;20031;-83
2023/05/02 09:09:36;;;;;;;0.20;0.20;;;;;;;14.46;45.15;102744.94;5046659;28;20076;-84
2023/05/02 09:12:05;;;;;;;0.10;0.10;;;;;;;14.47;43.90;102744.03;5050339;28;20182;-83
2023/05/02 09:14:34;;;;;;;0.25;0.25;;;;;;;14.57;44.37;102759.09;5049724;28;20035;-84
2023/05/02 09:17:01;;;;;;;0.10;0.10;;;;;;;14.68;44.95;102750.19;5063823;28;20032;-84
2023/05/02 09:19:27;;;;;;;0.10;0.10;;;;;;;14.79;44.52;102748.31;5043626;28;20028;-84
2023/05/02 09:22:00;;;;;;;0.10;0.10;;;;;;;14.97;44.67;102751.75;5055798;28;20029;-83
2023/05/02 09:24:26;;;;;;;0.60;0.60;;;;;;;15.09;44.90;102754.31;5046067;28;20052;-82
2023/05/02 09:27:02;;;;;;;0.10;0.10;;;;;;;15.34;44.32;102751.44;5049763;28;20482;-83
2023/05/02 09:29:36;;;;;;;0.10;0.10;;;;;;;15.56;44.31;102748.53;5043854;28;20033;-84
2023/05/02 09:32:04;;;;;;;0.35;0.35;;;;;;;15.81;43.92;102750.06;5060903;28;20025;-82
2023/05/02 09:34:36;;;;;;;0.10;0.10;;;;;;;15.97;43.21;102758.78;5061780;28;20033;-83
2023/05/02 09:37:04;;;;;;;0.10;0.10;;;;;;;16.00;42.76;102755.22;5052125;28;20025;-84
2023/05/02 09:39:36;;;;;;;0.10;0.10;;;;;;;16.14;43.11;102758.59;5056991;28;20284;-82
2023/05/02 09:42:02;;;;;;;0.20;0.20;;;;;;;16.23;43.29;102756.72;5056900;28;20040;-83
2023/05/02 09:44:37;;;;;;;0.10;0.10;;;;;;;16.38;42.54;102764.50;5065706;28;20433;-83
2023/05/02 09:47:03;;;;;;;0.47;0.35;;;;;;;16.43;42.63;102768.00;5060567;28;20024;-84
2023/05/02 09:50:00;;;;;;;;;;;;;;;;;;;;;
2023/05/02 09:52:40;;;;;;;0.10;0.10;;;;;;;16.54;42.56;102767.00;5056647;28;20108;-83
2023/05/02 09:55:22;;;;;;;0.10;0.10;;;;;;;16.71;41.36;102759.59;5055910;28;20033;-83
2023/05/02 09:57:49;;;;;;;1.33;1.25;;;;;;;16.70;40.69;102768.53;5046070;28;20043;-83
2023/05/02 10:00:19;;;;;;;0.43;0.43;;;;;;;16.62;40.92;102776.69;5059524;28;20025;-83
2023/05/02 10:02:49;;;;;;;0.45;0.45;;;;;;;16.48;41.42;102774.19;5046459;28;20496;-83
2023/05/02 10:05:16;;;;;;;0.10;0.10;;;;;;;16.48;41.49;102771.50;5055652;28;20029;-82
2023/05/02 10:07:43;;;;;;;0.10;0.10;;;;;;;16.54;41.46;102764.31;5065284;28;20017;-83
2023/05/02 10:10:16;;;;;;;0.10;0.10;;;;;;;16.71;41.15;102772.09;5058842;28;20032;-83
2023/05/02 10:12:44;;;;;;;0.10;0.10;;;;;;;16.80;40.15;102756.78;5048914;28;20056;-84
2023/05/02 10:15:14;;;;;;;0.20;0.20;;;;;;;16.85;40.28;102766.50;5060127;28;20035;-82
2023/05/02 10:17:46;;;;;;;0.10;0.10;;;;;;;16.79;39.62;102775.53;5056832;28;20108;-84
2023/05/02 10:20:21;;;;;;;0.10;0.10;;;;;;;16.85;39.41;102772.75;5072589;28;20013;-83
2023/05/02 10:22:49;;;;;;;0.10;0.10;;;;;;;16.84;39.39;102778.16;5059358;28;20029;-83
2023/05/02 10:25:16;;;;;;;0.10;0.10;;;;;;;16.65;39.19;102781.09;5046962;28;20120;-83
2023/05/02 10:27:42;;;;;;;0.10;0.10;;;;;;;16.46;39.42;102769.75;5049251;28;20021;-84
2023/05/02 10:30:09;;;;;;;0.10;0.10;;;;;;;16.24;39.52;102783.44;5059473;28;20032;-82
2023/05/02 10:32:36;;;;;;;0.10;0.10;;;;;;;16.09;40.33;102784.50;5046744;23;20042;-79
2023/05/02 10:35:04;;;;;;;0.43;0.43;;;;;;;16.11;40.59;102787.16;5010311;28;20052;-80
2023/05/02 10:37:33;;;;;;;0.47;0.47;;;;;;;16.24;40.09;102782.56;5011237;28;20456;-80
2023/05/02 10:40:00;;;;;;;0.10;0.10;;;;;;;16.39;40.01;102774.31;4996901;28;20089;-82
2023/05/02 10:42:27;;;;;;;0.10;0.10;;;;;;;16.54;40.08;102788.41;4997423;28;20038;-81
2023/05/02 10:44:53;;;;;;;0.15;0.15;;;;;;;16.67;39.64;102784.63;4992493;28;20037;-84
2023/05/02 10:47:22;;;;;;;0.10;0.10;;;;;;;16.84;39.52;102781.69;4986660;28;20036;-82
2023/05/02 10:49:53;;;;;;;0.10;0.10;;;;;;;16.99;38.04;102785.97;4982257;28;20516;-83
2023/05/02 10:52:40;;;;;;;2.25;0.65;;;;;;;17.16;38.96;102784.78;4985101;28;20026;-84
2023/05/02 10:55:22;;;;;;;0.10;0.10;;;;;;;17.24;40.24;102775.72;5000938;28;20026;-84
2023/05/02 11:00:40;;;;;;;0.10;0.10;;;;;;;17.40;40.39;102776.34;5067639;28;20382;-82
2023/05/02 11:03:07;;;;;;;0.10;0.10;;;;;;;17.39;40.18;102779.94;5045283;28;20037;-82
2023/05/02 11:06:08;;;;;;;0.10;0.10;;;;;;;17.45;39.62;102787.84;5055950;28;20056;-82
2023/05/02 11:08:34;;;;;;;0.00;0.00;;;;;;;17.45;40.13;102787.84;5050363;28;20710;-81
2023/05/02 11:11:41;;;;;;;0.03;0.03;;;;;;;17.63;39.89;102785.75;5056814;28;20093;-83
2023/05/02 11:14:08;;;;;;;0.10;0.10;;;;;;;17.71;39.74;102791.00;5051089;28;20057;-83
2023/05/02 11:24:57;;;;;;;0.10;0.10;;;;;;;18.17;38.95;102797.25;5060481;28;20494;-82
2023/05/02 11:30:09;;;;;;;0.10;0.10;;;;;;;18.45;38.08;102792.19;5003891;28;20387;-79
2023/05/02 11:35:30;;;;;;;0.10;0.10;;;;;;;18.59;37.33;102792.75;5151091;27;20404;-82
2023/05/02 11:37:59;;;;;;;0.10;0.10;;;;;;;18.66;36.87;102800.69;5133086;27;20031;-83
2023/05/02 11:40:27;;;;;;;0.10;0.10;;;;;;;18.66;36.15;102790.81;5129950;27;20024;-82
2023/05/02 11:42:54;;;;;;;0.10;0.10;;;;;;;18.62;36.81;102790.91;5133777;27;20035;-82
2023/05/02 11:45:22;;;;;;;0.10;0.10;;;;;;;18.64;35.86;102802.50;5132099;27;20397;-80
2023/05/02 11:47:50;;;;;;;0.10;0.10;;;;;;;18.68;35.95;102807.78;5146588;27;20546;-81
2023/05/02 11:50:17;;;;;;;2.13;1.67;;;;;;;18.70;35.86;102803.22;5136813;27;20525;-81
2023/05/02 11:52:44;;;;;;;0.10;0.10;;;;;;;18.76;35.60;102807.59;5142560;27;20031;-81
2023/05/02 11:55:13;;;;;;;0.00;0.00;;;;;;;18.80;35.97;102806.59;5142979;27;20043;-80
2023/05/02 11:57:39;;;;;;;0.10;0.10;;;;;;;18.79;35.19;102817.38;5138629;27;20037;-81
2023/05/02 12:00:06;;;;;;;0.03;0.03;;;;;;;18.80;35.80;102817.34;5136247;27;20559;-80
2023/05/02 12:02:38;;;;;;;0.10;0.10;;;;;;;18.83;35.27;102819.06;5139349;27;20023;-79
2023/05/02 12:05:05;;;;;;;0.30;0.30;;;;;;;18.78;34.54;102820.97;5139008;27;20102;-80
2023/05/02 12:10:14;;;;;;;0.13;0.13;;;;;;;18.95;34.90;102824.19;5059422;28;20422;-80
2023/05/02 12:12:44;;;;;;;0.25;0.25;;;;;;;19.04;33.53;102829.34;5057210;28;20035;-80
2023/05/02 12:15:11;;;;;;;0.10;0.10;;;;;;;19.01;34.41;102836.59;5062273;28;20044;-79
2023/05/02 12:17:40;;;;;;;0.10;0.10;;;;;;;18.86;33.21;102830.63;5065110;28;20108;-81
2023/05/02 12:20:09;;;;;;;0.10;0.10;;;;;;;18.90;34.51;102828.75;5063101;28;20167;-80
2023/05/02 12:22:35;;;;;;;0.10;0.10;;;;;;;18.95;34.54;102826.88;5065362;28;20036;-80
2023/05/02 12:25:03;;;;;;;0.10;0.10;;;;;;;19.04;33.51;102834.72;5063434;28;20052;-80